Westerly — VG3832 — position and weather

sailwx.info

Track history (hours):
 
Tides and Currents Weather Stations Pressure Air Temp Water Temp Dewpoint Dewpoint Depression Visibility Wind Speed Wind Dir Waves Ship Positions

Westerly

Last reported at 2018-Aug-15 18:48 UTC. Time now 2018-Aug-19 15:17 UTC.
Position N 48°41' W 125°42'.

Length 17 m; draft 3 m.

Type: Fishing. MMSI: 316003050.

Date/timePositionNaut miles runAvg speedWind from/ knotsBaromVisibWave heightAir tempDewpointWater temp
2018-Aug-15 18:48N 48°41' W 125°42'4 7.1
2018-Aug-15 18:19N 48°44' W 125°40'3 7.1
2018-Aug-15 17:57N 48°47' W 125°38'3 6.9
2018-Aug-15 17:30N 48°50' W 125°37'3 6.8
2018-Aug-15 17:00N 48°52' W 125°34'3 6.1
2018-Aug-15 16:30N 48°55' W 125°31'2 4.4
2018-Aug-15 16:00N 48°57' W 125°33'0 0.0
2018-Aug-15 15:30N 48°57' W 125°33'0 0.0
2018-Aug-15 15:00N 48°57' W 125°33'0 0.0
2018-Aug-15 14:30N 48°57' W 125°33'0 0.0
2018-Aug-15 14:00N 48°57' W 125°33'0 0.0
2018-Aug-15 13:30N 48°57' W 125°33'0 0.0
2018-Aug-15 13:00N 48°57' W 125°33'0 0.0
2018-Aug-15 12:30N 48°57' W 125°33'0 0.0
2018-Aug-15 12:00N 48°57' W 125°33'0 0.0
2018-Aug-15 11:30N 48°57' W 125°33'0 0.0
2018-Aug-15 11:00N 48°57' W 125°33'0 0.0
2018-Aug-15 10:30N 48°57' W 125°33'0 0.0
2018-Aug-15 10:00N 48°57' W 125°33'0 0.0
2018-Aug-15 09:30N 48°57' W 125°33'0 0.0
2018-Aug-15 09:00N 48°57' W 125°33'0 0.0
2018-Aug-15 08:30N 48°57' W 125°33'0 0.0
2018-Aug-15 08:00N 48°57' W 125°33'0 0.0
2018-Aug-15 07:30N 48°57' W 125°33'0 0.0
2018-Aug-15 07:00N 48°57' W 125°33'0 0.0
2018-Aug-15 06:30N 48°57' W 125°33'0 0.0
2018-Aug-15 06:00N 48°57' W 125°33'0 0.0
2018-Aug-15 05:30N 48°57' W 125°33'0 0.0
2018-Aug-15 05:00N 48°57' W 125°33'0 0.0
2018-Aug-15 04:30N 48°57' W 125°33'0 0.0
2018-Aug-15 04:00N 48°57' W 125°33'0 0.0
2018-Aug-15 03:30N 48°57' W 125°33'2 3.3
2018-Aug-15 03:00N 48°56' W 125°31'3 6.6
2018-Aug-15 02:30N 48°55' W 125°36'4 7.8
2018-Aug-15 02:01N 48°55' W 125°42'3 6.1
2018-Aug-15 01:30N 48°55' W 125°47'4 6.9
2018-Aug-15 00:55N 48°56' W 125°53'28 1.3
2018-Aug-14 04:14N 48°58' W 126°35'1 1.1
2018-Aug-14 03:15N 48°59' W 126°36'0 1.0
2018-Aug-14 02:57N 48°60' W 126°36'31 1.2
2018-Aug-13 02:30N 48°54' W 125°50'3 6.6
2018-Aug-13 02:00N 48°54' W 125°45'3 6.6
2018-Aug-13 01:30N 48°55' W 125°40'3 6.8
2018-Aug-13 01:00N 48°55' W 125°35'2 4.7
2018-Aug-13 00:30N 48°56' W 125°32'1 2.1
2018-Aug-13 00:00N 48°57' W 125°33'0 0.0
2018-Aug-12 23:30N 48°57' W 125°33'0 0.0
2018-Aug-12 23:00N 48°57' W 125°33'1 2.0
2018-Aug-12 22:30N 48°56' W 125°32'4 7.1
2018-Aug-12 22:00N 48°53' W 125°29'30 7.6
2018-Aug-12 18:02N 48°35' W 124°51'1 8.3
2018-Aug-12 17:58N 48°35' W 124°50'4 8.2
2018-Aug-12 17:30N 48°34' W 124°45'4 8.4
2018-Aug-12 17:00N 48°32' W 124°39'4 9.0
2018-Aug-12 16:30N 48°32' W 124°32'5 9.2
2018-Aug-12 16:00N 48°30' W 124°26'5 9.1
2018-Aug-12 15:30N 48°28' W 124°20'5 9.9
2018-Aug-12 15:00N 48°26' W 124°13'5 9.2
2018-Aug-12 14:30N 48°24' W 124°06'  
Track history (hours):
 
Tides and Currents Weather Stations Pressure Air Temp Water Temp Dewpoint Dewpoint Depression Visibility Wind Speed Wind Dir Waves Ship Positions

Westerly

Last reported at 2018-Aug-15 18:48 UTC. Time now 2018-Aug-19 15:17 UTC.
Position N 48°41' W 125°42'.

Length 17 m; draft 3 m.

Type: Fishing. MMSI: 316003050.

Date/timePositionNaut miles runAvg speedWind from/ knotsBaromVisibWave heightAir tempDewpointWater temp
2018-Aug-15 18:48N 48°41' W 125°42'4 7.1
2018-Aug-15 18:19N 48°44' W 125°40'3 7.1
2018-Aug-15 17:57N 48°47' W 125°38'3 6.9
2018-Aug-15 17:30N 48°50' W 125°37'3 6.8
2018-Aug-15 17:00N 48°52' W 125°34'3 6.1
2018-Aug-15 16:30N 48°55' W 125°31'2 4.4
2018-Aug-15 16:00N 48°57' W 125°33'0 0.0
2018-Aug-15 15:30N 48°57' W 125°33'0 0.0
2018-Aug-15 15:00N 48°57' W 125°33'0 0.0
2018-Aug-15 14:30N 48°57' W 125°33'0 0.0
2018-Aug-15 14:00N 48°57' W 125°33'0 0.0
2018-Aug-15 13:30N 48°57' W 125°33'0 0.0
2018-Aug-15 13:00N 48°57' W 125°33'0 0.0
2018-Aug-15 12:30N 48°57' W 125°33'0 0.0
2018-Aug-15 12:00N 48°57' W 125°33'0 0.0
2018-Aug-15 11:30N 48°57' W 125°33'0 0.0
2018-Aug-15 11:00N 48°57' W 125°33'0 0.0
2018-Aug-15 10:30N 48°57' W 125°33'0 0.0
2018-Aug-15 10:00N 48°57' W 125°33'0 0.0
2018-Aug-15 09:30N 48°57' W 125°33'0 0.0
2018-Aug-15 09:00N 48°57' W 125°33'0 0.0
2018-Aug-15 08:30N 48°57' W 125°33'0 0.0
2018-Aug-15 08:00N 48°57' W 125°33'0 0.0
2018-Aug-15 07:30N 48°57' W 125°33'0 0.0
2018-Aug-15 07:00N 48°57' W 125°33'0 0.0
2018-Aug-15 06:30N 48°57' W 125°33'0 0.0
2018-Aug-15 06:00N 48°57' W 125°33'0 0.0
2018-Aug-15 05:30N 48°57' W 125°33'0 0.0
2018-Aug-15 05:00N 48°57' W 125°33'0 0.0
2018-Aug-15 04:30N 48°57' W 125°33'0 0.0
2018-Aug-15 04:00N 48°57' W 125°33'0 0.0
2018-Aug-15 03:30N 48°57' W 125°33'2 3.3
2018-Aug-15 03:00N 48°56' W 125°31'3 6.6
2018-Aug-15 02:30N 48°55' W 125°36'4 7.8
2018-Aug-15 02:01N 48°55' W 125°42'3 6.1
2018-Aug-15 01:30N 48°55' W 125°47'4 6.9
2018-Aug-15 00:55N 48°56' W 125°53'28 1.3
2018-Aug-14 04:14N 48°58' W 126°35'1 1.1
2018-Aug-14 03:15N 48°59' W 126°36'0 1.0
2018-Aug-14 02:57N 48°60' W 126°36'31 1.2
2018-Aug-13 02:30N 48°54' W 125°50'3 6.6
2018-Aug-13 02:00N 48°54' W 125°45'3 6.6
2018-Aug-13 01:30N 48°55' W 125°40'3 6.8
2018-Aug-13 01:00N 48°55' W 125°35'2 4.7
2018-Aug-13 00:30N 48°56' W 125°32'1 2.1
2018-Aug-13 00:00N 48°57' W 125°33'0 0.0
2018-Aug-12 23:30N 48°57' W 125°33'0 0.0
2018-Aug-12 23:00N 48°57' W 125°33'1 2.0
2018-Aug-12 22:30N 48°56' W 125°32'4 7.1
2018-Aug-12 22:00N 48°53' W 125°29'30 7.6
2018-Aug-12 18:02N 48°35' W 124°51'1 8.3
2018-Aug-12 17:58N 48°35' W 124°50'4 8.2
2018-Aug-12 17:30N 48°34' W 124°45'4 8.4
2018-Aug-12 17:00N 48°32' W 124°39'4 9.0
2018-Aug-12 16:30N 48°32' W 124°32'5 9.2
2018-Aug-12 16:00N 48°30' W 124°26'5 9.1
2018-Aug-12 15:30N 48°28' W 124°20'5 9.9
2018-Aug-12 15:00N 48°26' W 124°13'5 9.2
2018-Aug-12 14:30N 48°24' W 124°06'  

Dump ship's entire track history